Time;durP1;ratioP1;P1;durP2;ratioP2;P2;SDS_P1;SDS_P2;PMS_P1;PMS_P2;Temp;Humidity;BMP_temperature;BMP_pressure;BME280_temperature;BME280_humidity;BME280_pressure;Samples;Min_cycle;Max_cycle;Signal;HPM_P1;HPM_P2
2022/09/18 00:01:36;;;;;;;9.80;0.98;;;;;;;;;;5093730;28;20036;-72
2022/09/18 00:04:40;;;;;;;3.45;0.90;;;;;;;;;;5094343;28;20032;-72
2022/09/18 00:07:45;;;;;;;3.72;0.70;;;;;;;;;;5093986;28;20032;-72
2022/09/18 00:10:49;;;;;;;4.68;0.60;;;;;;;;;;5094373;28;20062;-72
2022/09/18 00:13:53;;;;;;;8.73;0.90;;;;;;;;;;5094364;28;20048;-73
2022/09/18 00:16:58;;;;;;;2.20;0.50;;;;;;;;;;5093855;28;20032;-73
2022/09/18 00:20:02;;;;;;;1.77;0.68;;;;;;;;;;5093406;28;20044;-72
2022/09/18 00:23:06;;;;;;;6.85;0.70;;;;;;;;;;5093718;28;20048;-72
2022/09/18 00:26:12;;;;;;;7.03;0.68;;;;;;;;;;5093786;28;20036;-72
2022/09/18 00:29:16;;;;;;;3.83;0.63;;;;;;;;;;5093938;28;20048;-72
2022/09/18 00:32:21;;;;;;;4.68;0.77;;;;;;;;;;5092706;28;20048;-72
2022/09/18 00:35:25;;;;;;;5.00;0.65;;;;;;;;;;5092924;28;20036;-72
2022/09/18 00:38:33;;;;;;;2.55;0.60;;;;;;;;;;5081433;28;20044;-72
2022/09/18 00:41:39;;;;;;;2.88;0.80;;;;;;;;;;5093849;28;20032;-73
2022/09/18 00:44:44;;;;;;;3.28;0.50;;;;;;;;;;5092612;28;20032;-73
2022/09/18 00:47:49;;;;;;;3.70;0.88;;;;;;;;;;5093637;28;20040;-73
2022/09/18 00:50:53;;;;;;;5.40;0.70;;;;;;;;;;5093524;28;20044;-73
2022/09/18 00:54:19;;;;;;;5.13;0.70;;;;;;;;;;5093580;28;20036;-72
2022/09/18 00:57:27;;;;;;;4.00;1.15;;;;;;;;;;5093309;28;20036;-72
2022/09/18 01:00:31;;;;;;;4.30;0.88;;;;;;;;;;5092953;28;20357;-73
2022/09/18 01:03:36;;;;;;;4.35;0.75;;;;;;;;;;5092974;28;20520;-73
2022/09/18 01:06:47;;;;;;;2.22;0.60;;;;;;;;;;5092053;28;20308;-73
2022/09/18 01:10:10;;;;;;;4.68;0.75;;;;;;;;;;5093163;28;20040;-73
2022/09/18 01:13:24;;;;;;;3.53;0.63;;;;;;;;;;5092939;28;20044;-73
2022/09/18 01:16:33;;;;;;;2.40;0.93;;;;;;;;;;5092528;28;20373;-73
2022/09/18 01:19:37;;;;;;;7.28;0.75;;;;;;;;;;5091961;28;20036;-73
2022/09/18 01:22:52;;;;;;;3.83;0.70;;;;;;;;;;5080625;28;20036;-74
2022/09/18 01:26:09;;;;;;;4.75;0.60;;;;;;;;;;5093001;28;20401;-73
2022/09/18 01:29:13;;;;;;;4.38;0.80;;;;;;;;;;5091848;28;20483;-73
2022/09/18 01:32:20;;;;;;;2.78;0.57;;;;;;;;;;5091647;28;20044;-73
2022/09/18 01:35:29;;;;;;;4.80;0.93;;;;;;;;;;5092631;28;20036;-73
2022/09/18 01:38:35;;;;;;;4.07;0.70;;;;;;;;;;5092264;28;20515;-73
2022/09/18 01:41:50;;;;;;;2.50;0.52;;;;;;;;;;5091500;28;20032;-73
2022/09/18 01:44:59;;;;;;;2.85;0.50;;;;;;;;;;5091792;28;20052;-74
2022/09/18 01:48:05;;;;;;;2.40;0.70;;;;;;;;;;5091617;28;20036;-73
2022/09/18 01:51:19;;;;;;;2.92;0.47;;;;;;;;;;5090642;28;20052;-73
2022/09/18 01:54:23;;;;;;;;;;;;;;;;;;5091778;28;20484;-72
2022/09/18 01:57:53;;;;;;;5.55;0.82;;;;;;;;;;5091576;28;19915;-73
2022/09/18 02:01:00;;;;;;;3.60;0.68;;;;;;;;;;5091740;28;20373;-74
2022/09/18 02:04:07;;;;;;;1.95;0.40;;;;;;;;;;5068028;28;20035;-73
2022/09/18 02:07:21;;;;;;;4.00;0.65;;;;;;;;;;5091243;28;20044;-73
2022/09/18 02:10:28;;;;;;;1.20;0.55;;;;;;;;;;5091429;28;20491;-72
2022/09/18 02:13:55;;;;;;;4.78;0.73;;;;;;;;;;5091029;28;20044;-72
2022/09/18 02:17:09;;;;;;;1.77;0.40;;;;;;;;;;5091241;28;20040;-71
2022/09/18 02:20:26;;;;;;;7.45;0.60;;;;;;;;;;5090726;28;20040;-73
2022/09/18 02:23:30;;;;;;;7.05;0.77;;;;;;;;;;5091178;28;20040;-72
2022/09/18 02:26:37;;;;;;;5.40;0.68;;;;;;;;;;5090652;28;20480;-73
2022/09/18 02:29:43;;;;;;;3.58;0.60;;;;;;;;;;5091663;28;20499;-72
2022/09/18 02:32:48;;;;;;;4.43;0.60;;;;;;;;;;5091850;28;20043;-72
2022/09/18 02:36:00;;;;;;;3.90;1.30;;;;;;;;;;5079248;28;20036;-72
2022/09/18 02:39:26;;;;;;;3.22;0.60;;;;;;;;;;5090374;28;20028;-72
2022/09/18 02:42:36;;;;;;;3.47;0.50;;;;;;;;;;5090595;28;20484;-73
2022/09/18 02:45:47;;;;;;;7.65;0.80;;;;;;;;;;5091225;28;20040;-73
2022/09/18 02:49:11;;;;;;;3.43;0.70;;;;;;;;;;5079735;28;20048;-72
2022/09/18 02:52:27;;;;;;;3.80;0.50;;;;;;;;;;5067685;28;20048;-72
2022/09/18 02:55:37;;;;;;;3.38;0.70;;;;;;;;;;5090584;28;20032;-72
2022/09/18 02:58:44;;;;;;;7.32;0.82;;;;;;;;;;5078822;28;20044;-72
2022/09/18 03:01:49;;;;;;;9.55;0.70;;;;;;;;;;5089818;28;20036;-73
2022/09/18 03:04:56;;;;;;;6.50;0.57;;;;;;;;;;5090205;28;20040;-72
2022/09/18 03:08:29;;;;;;;8.07;0.68;;;;;;;;;;5090993;28;20036;-73
2022/09/18 03:11:35;;;;;;;8.18;0.70;;;;;;;;;;5090041;28;20044;-73
2022/09/18 03:14:39;;;;;;;5.43;0.73;;;;;;;;;;5090074;28;20365;-73
2022/09/18 03:17:44;;;;;;;2.80;0.70;;;;;;;;;;5090377;28;20496;-73
2022/09/18 03:20:49;;;;;;;3.72;0.60;;;;;;;;;;5078704;28;20048;-73
2022/09/18 03:23:54;;;;;;;1.98;0.60;;;;;;;;;;5090086;28;20032;-72
2022/09/18 03:27:05;;;;;;;5.55;0.85;;;;;;;;;;5089756;28;20480;-73
2022/09/18 03:30:10;;;;;;;2.47;0.65;;;;;;;;;;5089939;28;20036;-73
2022/09/18 03:33:16;;;;;;;2.45;0.50;;;;;;;;;;5078229;28;20388;-73
2022/09/18 03:36:21;;;;;;;5.43;0.85;;;;;;;;;;5090227;28;20024;-73
2022/09/18 03:39:28;;;;;;;6.18;0.57;;;;;;;;;;5078201;28;20028;-73
2022/09/18 03:42:35;;;;;;;3.60;0.70;;;;;;;;;;5090185;28;20032;-73
2022/09/18 03:45:39;;;;;;;4.22;1.02;;;;;;;;;;5090727;28;20480;-73
2022/09/18 03:48:43;;;;;;;3.45;0.60;;;;;;;;;;5089989;28;20369;-73
2022/09/18 03:51:48;;;;;;;3.15;0.47;;;;;;;;;;5089785;28;20044;-73
2022/09/18 03:54:53;;;;;;;3.92;0.70;;;;;;;;;;5078107;28;20032;-73
2022/09/18 03:58:16;;;;;;;2.67;0.50;;;;;;;;;;5089763;28;20480;-73
2022/09/18 04:01:41;;;;;;;3.17;0.82;;;;;;;;;;5089942;28;20028;-73
2022/09/18 04:05:11;;;;;;;5.57;0.88;;;;;;;;;;5090432;28;20044;-72
2022/09/18 04:08:35;;;;;;;5.90;0.70;;;;;;;;;;5090726;28;20020;-73
2022/09/18 04:11:51;;;;;;;8.27;0.73;;;;;;;;;;5092228;28;20040;-72
2022/09/18 04:14:57;;;;;;;4.10;0.80;;;;;;;;;;5095218;28;20040;-72
2022/09/18 04:18:02;;;;;;;4.50;0.80;;;;;;;;;;5096630;28;20036;-73
2022/09/18 04:21:06;;;;;;;3.15;0.63;;;;;;;;;;5095791;28;20043;-74
2022/09/18 04:24:12;;;;;;;2.65;0.68;;;;;;;;;;5096411;28;20040;-73
2022/09/18 04:27:17;;;;;;;4.95;0.70;;;;;;;;;;5096901;28;20048;-73
2022/09/18 04:30:21;;;;;;;4.13;0.68;;;;;;;;;;5095800;28;20040;-74
2022/09/18 04:33:28;;;;;;;3.00;0.52;;;;;;;;;;5084399;28;20048;-73
2022/09/18 04:36:33;;;;;;;1.83;0.70;;;;;;;;;;5096292;28;20036;-72
2022/09/18 04:39:37;;;;;;;4.45;0.60;;;;;;;;;;5084601;28;20032;-73
2022/09/18 04:42:42;;;;;;;5.35;0.65;;;;;;;;;;5096793;28;20032;-73
2022/09/18 04:45:48;;;;;;;2.30;0.50;;;;;;;;;;5096160;28;20036;-72
2022/09/18 04:48:54;;;;;;;4.75;0.85;;;;;;;;;;5096727;28;20040;-73
2022/09/18 04:52:02;;;;;;;3.25;1.05;;;;;;;;;;5095822;28;20043;-74
2022/09/18 04:55:07;;;;;;;2.13;0.45;;;;;;;;;;5096939;28;20040;-75
2022/09/18 04:58:16;;;;;;;4.32;0.60;;;;;;;;;;5096162;28;20258;-73
2022/09/18 05:01:22;;;;;;;3.25;1.05;;;;;;;;;;5084871;28;20036;-73
2022/09/18 05:04:27;;;;;;;5.00;1.05;;;;;;;;;;5094698;28;20032;-73
2022/09/18 05:07:43;;;;;;;3.58;0.60;;;;;;;;;;5083061;28;20036;-73
2022/09/18 05:10:47;;;;;;;2.33;0.75;;;;;;;;;;5094031;28;20036;-74
2022/09/18 05:13:55;;;;;;;4.55;0.45;;;;;;;;;;5092860;28;20043;-73
2022/09/18 05:17:00;;;;;;;2.80;0.60;;;;;;;;;;5093368;28;20036;-74
2022/09/18 05:20:09;;;;;;;0.98;0.45;;;;;;;;;;5080943;28;20194;-73
2022/09/18 05:23:21;;;;;;;2.50;0.50;;;;;;;;;;5092576;28;20036;-73
2022/09/18 05:26:26;;;;;;;3.80;0.70;;;;;;;;;;5092888;28;20036;-75
2022/09/18 05:29:32;;;;;;;4.72;0.68;;;;;;;;;;5094645;28;20040;-74
2022/09/18 05:32:54;;;;;;;2.08;0.55;;;;;;;;;;5092787;28;20040;-74
2022/09/18 05:35:58;;;;;;;4.88;0.70;;;;;;;;;;5092670;28;20044;-75
2022/09/18 05:39:03;;;;;;;3.85;0.60;;;;;;;;;;5093955;28;20040;-74
2022/09/18 05:42:07;;;;;;;4.05;1.02;;;;;;;;;;5091857;28;20028;-74
2022/09/18 05:45:12;;;;;;;4.63;1.70;;;;;;;;;;5092891;28;20456;-74
2022/09/18 05:48:17;;;;;;;6.45;1.45;;;;;;;;;;5091859;28;20499;-73
2022/09/18 05:51:23;;;;;;;3.65;1.35;;;;;;;;;;5091699;28;20028;-74
2022/09/18 05:54:27;;;;;;;3.70;1.17;;;;;;;;;;5079714;28;20036;-74
2022/09/18 05:57:32;;;;;;;4.68;1.33;;;;;;;;;;5093144;28;20389;-75
2022/09/18 06:00:36;;;;;;;4.00;1.23;;;;;;;;;;5091916;28;20040;-75
2022/09/18 06:03:47;;;;;;;;;;;;;;;;;;5091691;28;20048;-75
2022/09/18 06:06:51;;;;;;;8.65;0.70;;;;;;;;;;5091337;28;19915;-75
2022/09/18 06:09:56;;;;;;;3.47;0.88;;;;;;;;;;5079431;28;20036;-75
2022/09/18 06:13:05;;;;;;;2.10;0.60;;;;;;;;;;5091303;28;20036;-74
2022/09/18 06:16:10;;;;;;;3.83;0.82;;;;;;;;;;5090830;28;20040;-74
2022/09/18 06:19:31;;;;;;;3.53;0.80;;;;;;;;;;5090840;28;20032;-73
2022/09/18 06:22:37;;;;;;;4.75;0.85;;;;;;;;;;5090421;28;20052;-72
2022/09/18 06:25:41;;;;;;;6.47;0.65;;;;;;;;;;5079198;28;20032;-75
2022/09/18 06:28:48;;;;;;;3.03;0.75;;;;;;;;;;5092302;28;20048;-73
2022/09/18 06:31:53;;;;;;;3.10;0.60;;;;;;;;;;5091558;28;20337;-75
2022/09/18 06:35:01;;;;;;;3.03;0.70;;;;;;;;;;5092695;28;20044;-74
2022/09/18 06:38:09;;;;;;;5.05;0.80;;;;;;;;;;5091994;28;20032;-74
2022/09/18 06:41:23;;;;;;;2.08;0.88;;;;;;;;;;5092430;28;20040;-75
2022/09/18 06:44:31;;;;;;;2.53;0.60;;;;;;;;;;5092150;28;20044;-75
2022/09/18 06:47:46;;;;;;;5.57;0.75;;;;;;;;;;5091802;28;20036;-76
2022/09/18 06:50:51;;;;;;;3.38;0.70;;;;;;;;;;5092520;28;20039;-75
2022/09/18 06:53:56;;;;;;;2.42;0.63;;;;;;;;;;5079453;28;20036;-75
2022/09/18 06:57:00;;;;;;;2.80;0.82;;;;;;;;;;5091210;28;20472;-76
2022/09/18 07:00:08;;;;;;;4.32;0.57;;;;;;;;;;5091487;28;20036;-76
2022/09/18 07:03:15;;;;;;;3.58;0.98;;;;;;;;;;5090749;28;20040;-76
2022/09/18 07:06:28;;;;;;;2.33;0.60;;;;;;;;;;5092795;28;20040;-75
2022/09/18 07:09:33;;;;;;;3.00;0.80;;;;;;;;;;5094138;28;20040;-75
2022/09/18 07:12:40;;;;;;;3.50;0.90;;;;;;;;;;5095549;28;20036;-75
2022/09/18 07:15:48;;;;;;;4.25;0.70;;;;;;;;;;5097062;28;20044;-76
2022/09/18 07:18:52;;;;;;;4.22;0.52;;;;;;;;;;5094465;28;20036;-75
2022/09/18 07:21:58;;;;;;;1.73;0.60;;;;;;;;;;5081162;28;20044;-75
2022/09/18 07:25:03;;;;;;;2.72;0.60;;;;;;;;;;5094201;28;20032;-77
2022/09/18 07:28:10;;;;;;;1.70;0.52;;;;;;;;;;5093382;28;20048;-77
2022/09/18 07:31:22;;;;;;;2.38;0.77;;;;;;;;;;5096264;28;20036;-76
2022/09/18 07:34:27;;;;;;;2.88;0.73;;;;;;;;;;5097241;28;20044;-76
2022/09/18 07:37:34;;;;;;;4.75;0.80;;;;;;;;;;5101342;28;20104;-75
2022/09/18 07:41:03;;;;;;;4.95;1.08;;;;;;;;;;5098797;28;20044;-76
2022/09/18 07:44:10;;;;;;;1.63;0.70;;;;;;;;;;5092346;28;20044;-76
2022/09/18 07:47:14;;;;;;;2.80;0.85;;;;;;;;;;5081280;28;20401;-74
2022/09/18 07:50:20;;;;;;;3.78;0.80;;;;;;;;;;5096723;28;20040;-76
2022/09/18 07:53:26;;;;;;;5.55;1.40;;;;;;;;;;5097398;28;20036;-76
2022/09/18 07:56:34;;;;;;;8.50;0.75;;;;;;;;;;5097280;28;20373;-76
2022/09/18 07:59:39;;;;;;;4.22;0.80;;;;;;;;;;5096251;28;20036;-76
2022/09/18 08:02:43;;;;;;;4.82;1.23;;;;;;;;;;5097403;28;20052;-76
2022/09/18 08:05:57;;;;;;;1.15;0.50;;;;;;;;;;5096997;28;20036;-74
2022/09/18 08:09:03;;;;;;;4.40;0.95;;;;;;;;;;5100019;28;20032;-75
2022/09/18 08:12:31;;;;;;;4.20;0.93;;;;;;;;;;5101629;28;20044;-75
2022/09/18 08:16:04;;;;;;;3.67;0.60;;;;;;;;;;5104060;28;20040;-73
2022/09/18 08:19:27;;;;;;;2.90;1.00;;;;;;;;;;5101317;28;20039;-75
2022/09/18 08:23:02;;;;;;;2.45;0.70;;;;;;;;;;5098859;28;20048;-76
2022/09/18 08:26:07;;;;;;;2.20;0.80;;;;;;;;;;5085585;28;20043;-76
2022/09/18 08:29:17;;;;;;;5.15;0.90;;;;;;;;;;5097121;28;20048;-77
2022/09/18 08:32:27;;;;;;;2.85;0.93;;;;;;;;;;5085630;28;20040;-77
2022/09/18 08:35:33;;;;;;;3.00;0.90;;;;;;;;;;5097318;28;20032;-75
2022/09/18 08:38:47;;;;;;;3.15;1.30;;;;;;;;;;5095880;28;20032;-74
2022/09/18 08:42:39;;;;;;;2.50;0.60;;;;;;;;;;5097776;28;20047;-74
2022/09/18 08:45:54;;;;;;;6.32;1.05;;;;;;;;;;5084758;28;20432;-76
2022/09/18 08:48:59;;;;;;;2.95;0.85;;;;;;;;;;5096803;28;20036;-77
2022/09/18 08:52:14;;;;;;;2.05;0.50;;;;;;;;;;5097059;28;20504;-76
2022/09/18 08:55:23;;;;;;;4.00;1.00;;;;;;;;;;5097015;28;20036;-76
2022/09/18 08:58:52;;;;;;;1.50;0.70;;;;;;;;;;5097571;28;20036;-79
2022/09/18 09:02:02;;;;;;;2.85;1.08;;;;;;;;;;5095708;28;20036;-75
2022/09/18 09:05:08;;;;;;;3.50;1.20;;;;;;;;;;5095546;28;20044;-76
2022/09/18 09:08:26;;;;;;;2.50;1.00;;;;;;;;;;5089265;28;20044;-75
2022/09/18 09:11:38;;;;;;;2.47;0.80;;;;;;;;;;5086368;28;20110;-75
2022/09/18 09:14:43;;;;;;;5.80;0.85;;;;;;;;;;5096256;28;20044;-75
2022/09/18 09:17:47;;;;;;;2.67;0.82;;;;;;;;;;5094625;28;20032;-76
2022/09/18 09:20:56;;;;;;;2.15;0.90;;;;;;;;;;5095915;28;20036;-75
2022/09/18 09:24:08;;;;;;;7.05;0.90;;;;;;;;;;5093936;28;20048;-75
2022/09/18 09:27:51;;;;;;;4.20;0.80;;;;;;;;;;5091468;28;20056;-76
2022/09/18 09:31:24;;;;;;;3.47;0.50;;;;;;;;;;5093934;28;20032;-76
2022/09/18 09:34:43;;;;;;;3.30;0.82;;;;;;;;;;5094651;28;20044;-75
2022/09/18 09:38:28;;;;;;;3.60;0.95;;;;;;;;;;5096196;28;20032;-76
2022/09/18 09:41:41;;;;;;;4.82;1.17;;;;;;;;;;5083675;28;20511;-75
2022/09/18 09:44:51;;;;;;;1.77;0.73;;;;;;;;;;5094368;28;20036;-75
2022/09/18 09:47:55;;;;;;;4.72;0.80;;;;;;;;;;5094692;28;20032;-77
2022/09/18 09:51:03;;;;;;;2.08;0.80;;;;;;;;;;5093584;28;20040;-76
2022/09/18 09:54:10;;;;;;;2.00;0.90;;;;;;;;;;5092943;28;20373;-74
2022/09/18 09:57:23;;;;;;;3.40;0.80;;;;;;;;;;5093298;28;20181;-75
2022/09/18 10:00:30;;;;;;;1.35;0.80;;;;;;;;;;5093056;28;20186;-76
2022/09/18 10:03:57;;;;;;;4.18;0.73;;;;;;;;;;5093232;28;20043;-76
2022/09/18 10:07:04;;;;;;;3.47;0.77;;;;;;;;;;5082018;28;20039;-75
2022/09/18 10:10:21;;;;;;;5.20;1.20;;;;;;;;;;5092084;28;20040;-76
2022/09/18 10:13:34;;;;;;;2.45;0.80;;;;;;;;;;5091856;28;20040;-74
2022/09/18 10:16:45;;;;;;;3.58;0.77;;;;;;;;;;5094200;28;20039;-74
2022/09/18 10:19:50;;;;;;;3.90;0.75;;;;;;;;;;5082360;28;20036;-76
2022/09/18 10:22:56;;;;;;;1.83;0.93;;;;;;;;;;5094561;28;20520;-75
2022/09/18 10:26:01;;;;;;;2.65;0.82;;;;;;;;;;5095364;28;20032;-73
2022/09/18 10:29:08;;;;;;;2.10;0.80;;;;;;;;;;5094523;28;20044;-75
2022/09/18 10:32:34;;;;;;;3.00;1.20;;;;;;;;;;5093359;28;20040;-75
2022/09/18 10:35:43;;;;;;;3.65;1.55;;;;;;;;;;5082642;28;20032;-75
2022/09/18 10:38:50;;;;;;;5.32;1.00;;;;;;;;;;5097100;28;20036;-76
2022/09/18 10:42:06;;;;;;;2.10;0.82;;;;;;;;;;5098339;28;20043;-74
2022/09/18 10:45:24;;;;;;;4.55;0.80;;;;;;;;;;5075523;28;20052;-74
2022/09/18 10:48:43;;;;;;;3.40;0.98;;;;;;;;;;5095561;28;20036;-76
2022/09/18 10:51:48;;;;;;;2.40;0.88;;;;;;;;;;5094742;28;20032;-76
2022/09/18 10:55:08;;;;;;;3.58;0.95;;;;;;;;;;5094749;28;20028;-76
2022/09/18 10:58:16;;;;;;;6.00;1.23;;;;;;;;;;5093600;28;20376;-75
2022/09/18 11:01:29;;;;;;;2.35;0.80;;;;;;;;;;5094171;28;20036;-75
2022/09/18 11:04:35;;;;;;;3.92;0.90;;;;;;;;;;5093296;28;20036;-75
2022/09/18 11:07:46;;;;;;;1.85;0.98;;;;;;;;;;5081752;28;20040;-76
2022/09/18 11:10:52;;;;;;;2.53;0.80;;;;;;;;;;5092496;28;20040;-75
2022/09/18 11:14:02;;;;;;;4.20;0.80;;;;;;;;;;5081340;28;20032;-75
2022/09/18 11:17:21;;;;;;;2.40;0.98;;;;;;;;;;5093592;28;20032;-76
2022/09/18 11:20:28;;;;;;;2.90;1.00;;;;;;;;;;5092618;28;20036;-75
2022/09/18 11:23:41;;;;;;;6.38;1.05;;;;;;;;;;5093969;28;20056;-75
2022/09/18 11:26:49;;;;;;;4.32;1.02;;;;;;;;;;5097135;28;20047;-77
2022/09/18 11:30:12;;;;;;;6.78;1.15;;;;;;;;;;5085594;28;20039;-75
2022/09/18 11:33:25;;;;;;;1.15;0.68;;;;;;;;;;5096947;28;20040;-74
2022/09/18 11:36:32;;;;;;;2.58;1.00;;;;;;;;;;5096825;28;20044;-74
2022/09/18 11:39:41;;;;;;;6.78;0.90;;;;;;;;;;5096013;28;20032;-76
2022/09/18 11:42:47;;;;;;;2.10;0.85;;;;;;;;;;5096233;28;20048;-76
2022/09/18 11:46:00;;;;;;;1.45;0.63;;;;;;;;;;5096392;28;20040;-75
2022/09/18 11:49:24;;;;;;;3.38;1.05;;;;;;;;;;5087853;28;20473;-76
2022/09/18 11:52:31;;;;;;;1.90;0.85;;;;;;;;;;5098941;28;20032;-73
2022/09/18 11:55:55;;;;;;;1.77;0.82;;;;;;;;;;5098661;28;20032;-75
2022/09/18 11:59:08;;;;;;;1.20;0.73;;;;;;;;;;5099282;28;20040;-74
2022/09/18 12:02:26;;;;;;;5.78;0.88;;;;;;;;;;5098785;28;20393;-75
2022/09/18 12:05:40;;;;;;;1.85;1.00;;;;;;;;;;5096316;28;20048;-74
2022/09/18 12:08:45;;;;;;;2.78;1.10;;;;;;;;;;5096139;28;20373;-75
2022/09/18 12:12:03;;;;;;;1.50;0.95;;;;;;;;;;5096404;28;20036;-75
2022/09/18 12:15:23;;;;;;;7.68;1.30;;;;;;;;;;5100501;28;20036;-75
2022/09/18 12:18:32;;;;;;;4.25;1.00;;;;;;;;;;5096232;28;20044;-75
2022/09/18 12:21:38;;;;;;;1.58;0.88;;;;;;;;;;5096526;28;20373;-76
2022/09/18 12:24:43;;;;;;;1.40;1.10;;;;;;;;;;5094762;28;20048;-76
2022/09/18 12:27:53;;;;;;;1.65;0.80;;;;;;;;;;5095351;28;20392;-75
2022/09/18 12:31:20;;;;;;;2.33;1.20;;;;;;;;;;5094706;28;20032;-76
2022/09/18 12:34:42;;;;;;;4.72;1.30;;;;;;;;;;5093546;28;20397;-74
2022/09/18 12:37:47;;;;;;;0.93;0.50;;;;;;;;;;5096327;28;20044;-77
2022/09/18 12:41:10;;;;;;;5.22;0.70;;;;;;;;;;5097167;28;20162;-74
2022/09/18 12:44:28;;;;;;;1.15;0.82;;;;;;;;;;5097826;28;20048;-75
2022/09/18 12:47:51;;;;;;;1.05;0.50;;;;;;;;;;5098307;28;20040;-76
2022/09/18 12:51:10;;;;;;;1.45;0.70;;;;;;;;;;5096552;28;20044;-74
2022/09/18 12:54:33;;;;;;;1.10;0.80;;;;;;;;;;5094267;28;20040;-75
2022/09/18 12:57:56;;;;;;;1.52;0.73;;;;;;;;;;5094416;28;20043;-75
2022/09/18 13:01:03;;;;;;;1.73;0.70;;;;;;;;;;5096060;28;20044;-74
2022/09/18 13:04:24;;;;;;;0.77;0.52;;;;;;;;;;5094017;28;20392;-73
2022/09/18 13:07:32;;;;;;;2.08;0.82;;;;;;;;;;5093966;28;20032;-75
2022/09/18 13:10:42;;;;;;;4.93;1.15;;;;;;;;;;5095121;28;20040;-76
2022/09/18 13:13:46;;;;;;;3.35;1.00;;;;;;;;;;5094075;28;20496;-74
2022/09/18 13:16:52;;;;;;;2.45;0.70;;;;;;;;;;5093500;28;20537;-72
2022/09/18 13:19:59;;;;;;;1.60;0.73;;;;;;;;;;5093598;28;20369;-75
2022/09/18 13:23:04;;;;;;;4.75;1.15;;;;;;;;;;5094502;28;20028;-74
2022/09/18 13:26:11;;;;;;;1.98;0.63;;;;;;;;;;5054334;28;1206392;-71
2022/09/18 13:29:34;;;;;;;1.83;0.82;;;;;;;;;;5094686;28;20042;-73
2022/09/18 13:32:40;;;;;;;1.05;0.68;;;;;;;;;;5095766;28;20036;-76
2022/09/18 13:35:49;;;;;;;4.07;0.80;;;;;;;;;;5094281;28;20400;-72
2022/09/18 13:38:56;;;;;;;2.17;0.70;;;;;;;;;;5094270;28;20036;-75
2022/09/18 13:42:01;;;;;;;2.03;0.73;;;;;;;;;;5093315;28;20048;-75
2022/09/18 13:45:16;;;;;;;2.70;0.75;;;;;;;;;;5093848;28;20032;-75
2022/09/18 13:48:24;;;;;;;0.95;0.73;;;;;;;;;;5092694;28;20024;-73
2022/09/18 13:51:35;;;;;;;1.73;0.50;;;;;;;;;;5097095;28;20044;-74
2022/09/18 13:54:39;;;;;;;1.35;0.60;;;;;;;;;;5096735;28;20044;-75
2022/09/18 13:57:44;;;;;;;2.15;0.80;;;;;;;;;;5094524;28;20178;-74
2022/09/18 14:00:52;;;;;;;0.85;0.70;;;;;;;;;;5096259;28;20488;-74
2022/09/18 14:03:58;;;;;;;1.42;0.70;;;;;;;;;;5096243;28;20060;-74
2022/09/18 14:07:03;;;;;;;1.10;0.65;;;;;;;;;;5093868;28;20036;-75
2022/09/18 14:10:23;;;;;;;1.08;0.70;;;;;;;;;;5094205;28;20036;-74
2022/09/18 14:13:34;;;;;;;2.60;0.60;;;;;;;;;;5094119;28;20468;-76
2022/09/18 14:16:42;;;;;;;;;;;;;;;;;;5095549;28;20388;-75
2022/09/18 14:19:56;;;;;;;1.13;0.50;;;;;;;;;;5094425;28;19919;-77
2022/09/18 14:23:19;;;;;;;1.30;0.70;;;;;;;;;;5098210;28;20044;-75
2022/09/18 14:26:37;;;;;;;1.05;0.50;;;;;;;;;;5096716;28;20040;-75
2022/09/18 14:29:42;;;;;;;1.35;0.57;;;;;;;;;;5096689;28;20484;-76
2022/09/18 14:33:01;;;;;;;2.30;0.68;;;;;;;;;;5097056;28;20475;-76
2022/09/18 14:36:07;;;;;;;2.30;0.65;;;;;;;;;;5098062;28;20392;-75
2022/09/18 14:39:31;;;;;;;1.20;0.60;;;;;;;;;;5097623;28;20028;-74
2022/09/18 14:42:38;;;;;;;1.42;0.70;;;;;;;;;;5099811;28;20044;-77
2022/09/18 14:45:47;;;;;;;1.15;0.55;;;;;;;;;;5093963;28;20036;-75
2022/09/18 14:48:52;;;;;;;1.13;0.60;;;;;;;;;;5094327;28;20028;-75
2022/09/18 14:51:57;;;;;;;2.03;0.55;;;;;;;;;;5096065;28;20487;-77
2022/09/18 14:55:08;;;;;;;2.53;0.73;;;;;;;;;;5096437;28;20036;-76
2022/09/18 14:58:18;;;;;;;1.17;0.80;;;;;;;;;;5096212;28;20028;-76
2022/09/18 15:01:27;;;;;;;2.05;0.98;;;;;;;;;;5097425;28;20491;-75
2022/09/18 15:04:32;;;;;;;2.20;1.00;;;;;;;;;;5096033;28;20044;-74
2022/09/18 15:07:39;;;;;;;2.97;0.60;;;;;;;;;;5095180;28;20028;-78
2022/09/18 15:10:46;;;;;;;3.40;0.70;;;;;;;;;;5095469;28;20178;-77
2022/09/18 15:13:52;;;;;;;1.40;0.63;;;;;;;;;;5084990;28;20134;-76
2022/09/18 15:16:59;;;;;;;2.03;0.95;;;;;;;;;;5097638;28;20044;-77
2022/09/18 15:20:15;;;;;;;4.43;0.77;;;;;;;;;;5097285;28;20040;-74
2022/09/18 15:23:27;;;;;;;1.55;0.60;;;;;;;;;;5095899;28;20044;-75
2022/09/18 15:26:35;;;;;;;1.55;0.60;;;;;;;;;;5094945;28;20044;-75
2022/09/18 15:29:48;;;;;;;2.42;0.70;;;;;;;;;;5092747;28;20036;-75
2022/09/18 15:32:59;;;;;;;2.80;0.70;;;;;;;;;;5092961;28;20040;-78
2022/09/18 15:36:04;;;;;;;4.30;0.80;;;;;;;;;;5096214;28;20040;-75
2022/09/18 15:39:23;;;;;;;5.32;0.50;;;;;;;;;;5093072;28;20754;-77
2022/09/18 15:42:32;;;;;;;1.90;0.50;;;;;;;;;;5091670;28;20048;-74
2022/09/18 15:45:37;;;;;;;2.15;1.08;;;;;;;;;;5092226;28;20044;-74
2022/09/18 15:48:42;;;;;;;1.88;0.80;;;;;;;;;;5092417;28;20032;-77
2022/09/18 15:51:49;;;;;;;1.25;0.60;;;;;;;;;;5096626;28;20044;-74
2022/09/18 15:55:03;;;;;;;0.90;0.55;;;;;;;;;;5093725;28;20044;-74
2022/09/18 15:58:18;;;;;;;1.25;0.70;;;;;;;;;;5093945;28;20036;-74
2022/09/18 16:01:24;;;;;;;3.67;0.60;;;;;;;;;;5094333;28;20032;-76
2022/09/18 16:04:32;;;;;;;1.40;0.73;;;;;;;;;;5094593;28;20048;-74
2022/09/18 16:07:37;;;;;;;1.65;0.60;;;;;;;;;;5093855;28;20036;-74
2022/09/18 16:10:42;;;;;;;5.03;1.40;;;;;;;;;;5084221;28;20480;-73
2022/09/18 16:13:46;;;;;;;2.20;0.88;;;;;;;;;;5098687;28;20028;-75
2022/09/18 16:16:50;;;;;;;4.95;0.80;;;;;;;;;;5086198;28;20036;-74
2022/09/18 16:19:56;;;;;;;3.72;0.70;;;;;;;;;;5086251;28;20036;-74
2022/09/18 16:23:19;;;;;;;5.38;1.00;;;;;;;;;;5098100;28;20044;-75
2022/09/18 16:26:28;;;;;;;1.52;1.00;;;;;;;;;;5096909;28;20028;-76
2022/09/18 16:29:33;;;;;;;3.80;1.13;;;;;;;;;;5098381;28;20388;-76
2022/09/18 16:32:40;;;;;;;4.20;1.00;;;;;;;;;;5098232;28;20044;-75
2022/09/18 16:35:45;;;;;;;1.58;0.88;;;;;;;;;;5098694;28;20044;-76
2022/09/18 16:38:50;;;;;;;3.83;1.10;;;;;;;;;;5097898;28;20040;-75
2022/09/18 16:41:54;;;;;;;6.40;3.42;;;;;;;;;;5097592;28;20040;-73
2022/09/18 16:44:59;;;;;;;9.48;1.30;;;;;;;;;;5095065;28;20044;-74
2022/09/18 16:48:03;;;;;;;4.93;1.25;;;;;;;;;;5094792;28;20036;-75
2022/09/18 16:51:08;;;;;;;2.38;1.17;;;;;;;;;;5095539;28;20044;-75
2022/09/18 16:54:12;;;;;;;5.85;1.20;;;;;;;;;;5094720;28;20032;-75
2022/09/18 16:57:22;;;;;;;3.00;1.35;;;;;;;;;;5097304;28;20039;-75
2022/09/18 17:00:27;;;;;;;3.65;1.25;;;;;;;;;;5098328;28;20428;-74
2022/09/18 17:03:32;;;;;;;5.93;1.10;;;;;;;;;;5098654;28;20048;-75
2022/09/18 17:06:36;;;;;;;6.28;1.40;;;;;;;;;;5098309;28;20028;-75
2022/09/18 17:09:41;;;;;;;2.20;1.15;;;;;;;;;;5098754;28;20044;-75
2022/09/18 17:12:45;;;;;;;3.47;1.17;;;;;;;;;;5095791;28;20036;-75
2022/09/18 17:15:52;;;;;;;3.83;1.23;;;;;;;;;;5095506;28;20036;-75
2022/09/18 17:18:56;;;;;;;3.72;1.40;;;;;;;;;;5096728;28;20040;-75
2022/09/18 17:22:00;;;;;;;4.85;1.30;;;;;;;;;;5094455;28;20032;-75
2022/09/18 17:25:05;;;;;;;3.75;1.45;;;;;;;;;;5097920;28;20048;-77
2022/09/18 17:28:11;;;;;;;4.13;1.42;;;;;;;;;;5095893;28;20044;-74
2022/09/18 17:31:18;;;;;;;10.23;1.45;;;;;;;;;;5096794;28;20039;-75
2022/09/18 17:34:23;;;;;;;5.15;1.55;;;;;;;;;;5096034;28;20047;-77
2022/09/18 17:37:28;;;;;;;24.42;4.50;;;;;;;;;;5095413;28;20039;-76
2022/09/18 17:40:33;;;;;;;3.72;1.83;;;;;;;;;;5094730;28;20368;-77
2022/09/18 17:43:37;;;;;;;10.20;1.67;;;;;;;;;;5094840;28;20044;-77
2022/09/18 17:46:41;;;;;;;5.15;1.70;;;;;;;;;;5096440;28;20044;-75
2022/09/18 17:49:46;;;;;;;3.72;1.25;;;;;;;;;;5094410;28;20365;-77
2022/09/18 17:52:50;;;;;;;5.90;1.55;;;;;;;;;;5095346;28;20048;-77
2022/09/18 17:55:57;;;;;;;6.18;1.48;;;;;;;;;;5094886;28;20377;-78
2022/09/18 17:59:04;;;;;;;9.20;1.50;;;;;;;;;;5094775;28;20028;-76
2022/09/18 18:02:09;;;;;;;6.28;1.50;;;;;;;;;;5094147;28;20032;-76
2022/09/18 18:05:13;;;;;;;6.43;1.98;;;;;;;;;;5093037;28;20047;-77
2022/09/18 18:08:18;;;;;;;7.30;2.17;;;;;;;;;;5094141;28;20028;-76
2022/09/18 18:11:24;;;;;;;5.57;2.08;;;;;;;;;;5094821;28;20040;-77
2022/09/18 18:14:30;;;;;;;7.45;2.00;;;;;;;;;;5094529;28;20032;-76
2022/09/18 18:17:34;;;;;;;8.43;2.53;;;;;;;;;;5093934;28;20096;-75
2022/09/18 18:20:39;;;;;;;4.22;1.80;;;;;;;;;;5094258;28;20040;-75
2022/09/18 18:23:43;;;;;;;6.50;1.77;;;;;;;;;;5094252;28;20044;-78
2022/09/18 18:26:47;;;;;;;5.15;1.63;;;;;;;;;;5092889;28;20036;-75
2022/09/18 18:29:52;;;;;;;12.93;2.00;;;;;;;;;;5094222;28;20036;-77
2022/09/18 18:32:56;;;;;;;6.53;1.70;;;;;;;;;;5092955;28;20040;-76
2022/09/18 18:36:14;;;;;;;13.27;8.70;;;;;;;;;;5092258;28;20040;-75
2022/09/18 18:39:19;;;;;;;11.52;2.60;;;;;;;;;;5093308;28;20057;-77
2022/09/18 18:42:25;;;;;;;5.63;2.33;;;;;;;;;;5093138;28;20032;-76
2022/09/18 18:45:34;;;;;;;10.30;1.55;;;;;;;;;;5093962;28;20047;-76
2022/09/18 18:48:38;;;;;;;10.18;1.95;;;;;;;;;;5093325;28;20104;-76
2022/09/18 18:51:46;;;;;;;7.80;1.70;;;;;;;;;;5092800;28;20044;-77
2022/09/18 18:54:50;;;;;;;9.13;2.08;;;;;;;;;;5093280;28;20044;-77
2022/09/18 18:57:55;;;;;;;10.80;2.05;;;;;;;;;;5093214;28;20185;-75